Time;durP1;ratioP1;P1;durP2;ratioP2;P2;SDS_P1;SDS_P2;PMS_P1;PMS_P2;Temp;Humidity;BMP_temperature;BMP_pressure;BME280_temperature;BME280_humidity;BME280_pressure;Samples;Min_cycle;Max_cycle;Signal;HPM_P1;HPM_P2
2022/08/03 00:01:44;;;;;;;7.83;5.90;;;;;;;19.90;77.22;100320.22;5119360;28;20474;-68
2022/08/03 00:04:11;;;;;;;7.10;5.63;;;;;;;19.88;77.35;100319.59;5119211;28;20456;-68
2022/08/03 00:06:38;;;;;;;6.43;5.83;;;;;;;19.86;77.66;100313.50;5119821;28;21114;-68
2022/08/03 00:09:06;;;;;;;6.40;5.80;;;;;;;19.83;77.91;100317.47;5119881;28;20454;-67
2022/08/03 00:11:35;;;;;;;6.23;5.60;;;;;;;19.82;77.79;100317.66;5119112;28;20478;-67
2022/08/03 00:14:02;;;;;;;9.03;6.00;;;;;;;19.78;77.62;100314.50;5120331;28;20430;-67
2022/08/03 00:16:28;;;;;;;6.30;5.40;;;;;;;19.75;77.90;100315.75;5119429;28;20508;-67
2022/08/03 00:18:56;;;;;;;7.90;6.20;;;;;;;19.72;78.59;100317.97;5117624;28;20494;-66
2022/08/03 00:21:22;;;;;;;7.10;6.40;;;;;;;19.66;79.22;100314.19;5119340;28;20497;-67
2022/08/03 00:23:49;;;;;;;7.63;6.23;;;;;;;19.62;79.70;100309.38;5120022;28;20809;-67
2022/08/03 00:26:16;;;;;;;7.07;6.37;;;;;;;19.63;79.49;100311.88;5119002;28;20527;-67
2022/08/03 00:28:44;;;;;;;7.30;6.60;;;;;;;19.63;79.75;100311.03;5120041;28;20480;-67
2022/08/03 00:31:11;;;;;;;6.97;6.27;;;;;;;19.56;79.64;100303.72;5118383;28;20474;-67
2022/08/03 00:33:38;;;;;;;7.20;6.50;;;;;;;19.53;79.66;100309.53;5119404;28;20461;-67
2022/08/03 00:36:05;;;;;;;6.57;5.80;;;;;;;19.49;79.83;100307.41;5119198;28;21144;-67
2022/08/03 00:38:32;;;;;;;7.63;5.87;;;;;;;19.50;80.33;100307.22;5118261;28;20473;-67
2022/08/03 00:40:58;;;;;;;6.17;5.67;;;;;;;19.44;80.54;100302.56;5119149;28;20532;-67
2022/08/03 00:43:26;;;;;;;7.73;6.73;;;;;;;19.42;81.03;100301.91;5119034;28;20430;-67
2022/08/03 00:45:55;;;;;;;7.63;6.33;;;;;;;19.38;81.05;100303.38;5118833;28;20523;-66
2022/08/03 00:48:22;;;;;;;10.07;6.50;;;;;;;19.36;80.88;100302.72;5110324;28;20541;-67
2022/08/03 00:50:49;;;;;;;7.10;6.40;;;;;;;19.35;80.79;100291.03;5118890;28;20508;-67
2022/08/03 00:53:16;;;;;;;8.10;5.63;;;;;;;19.34;81.35;100299.38;5119301;28;20438;-67
2022/08/03 00:55:43;;;;;;;8.10;7.30;;;;;;;19.33;82.08;100297.69;5118349;28;20504;-67
2022/08/03 00:58:10;;;;;;;6.60;5.90;;;;;;;19.32;82.04;100298.72;5119249;28;20454;-67
2022/08/03 01:00:40;;;;;;;8.23;6.33;;;;;;;19.36;81.92;100290.00;5127984;27;20461;-67
2022/08/03 01:03:10;;;;;;;9.23;6.30;;;;;;;19.33;81.61;100295.81;5139721;27;20482;-67
2022/08/03 01:05:45;;;;;;;6.73;6.13;;;;;;;19.30;81.49;100298.09;5121185;27;20464;-68
2022/08/03 01:08:18;;;;;;;10.20;6.70;;;;;;;19.25;81.99;100292.41;5118765;28;20472;-68
2022/08/03 01:10:52;;;;;;;8.10;6.30;;;;;;;19.21;81.86;100286.53;5118885;28;20496;-68
2022/08/03 01:13:24;;;;;;;7.70;7.00;;;;;;;19.21;81.93;100291.13;5118680;28;20455;-68
2022/08/03 01:15:57;;;;;;;7.37;6.73;;;;;;;19.15;82.43;100290.06;5118246;28;20466;-68
2022/08/03 01:18:32;;;;;;;10.33;6.50;;;;;;;19.19;82.64;100285.91;5117858;28;20495;-68
2022/08/03 01:21:01;;;;;;;7.33;6.60;;;;;;;19.21;82.04;100291.97;5118662;28;21038;-68
2022/08/03 01:23:37;;;;;;;8.30;7.60;;;;;;;19.15;82.08;100287.34;5119049;28;20469;-68
2022/08/03 01:26:12;;;;;;;7.83;7.03;;;;;;;19.10;82.20;100287.94;5116002;28;20469;-68
2022/08/03 01:29:09;;;;;;;8.00;7.10;;;;;;;19.05;82.43;100290.38;5119117;28;20442;-68
2022/08/03 01:31:42;;;;;;;7.77;7.07;;;;;;;18.97;82.38;100295.94;5085665;28;20486;-68
2022/08/03 01:34:12;;;;;;;7.60;6.80;;;;;;;18.95;82.89;100288.00;5118827;28;20481;-68
2022/08/03 01:36:42;;;;;;;8.80;6.77;;;;;;;18.96;83.36;100299.69;5118340;28;20581;-68
2022/08/03 01:39:10;;;;;;;7.60;6.80;;;;;;;18.90;83.59;100290.44;5119605;28;20458;-68
2022/08/03 01:41:40;;;;;;;9.57;7.40;;;;;;;18.89;83.58;100288.78;5118192;28;20548;-69
2022/08/03 01:44:09;;;;;;;7.60;6.90;;;;;;;18.90;83.44;100289.63;5118661;28;20520;-68
2022/08/03 01:46:39;;;;;;;7.57;6.87;;;;;;;18.93;83.26;100286.53;5117147;28;20489;-67
2022/08/03 01:49:08;;;;;;;7.23;6.53;;;;;;;18.87;82.93;100282.72;5119095;28;20488;-68
2022/08/03 01:51:36;;;;;;;7.83;7.10;;;;;;;18.86;83.11;100291.88;5118046;28;20478;-68
2022/08/03 01:54:04;;;;;;;11.20;7.90;;;;;;;18.81;83.28;100294.28;5119037;28;20426;-68
2022/08/03 01:56:32;;;;;;;8.00;7.20;;;;;;;18.79;83.26;100285.53;5118012;28;20473;-68
2022/08/03 01:59:01;;;;;;;8.30;7.17;;;;;;;18.75;83.38;100282.38;5117859;28;20446;-68
2022/08/03 02:01:28;;;;;;;7.67;6.90;;;;;;;18.81;83.14;100281.56;5117579;28;20480;-67
2022/08/03 02:03:58;;;;;;;7.87;7.17;;;;;;;18.80;83.00;100273.66;5118378;28;20454;-68
2022/08/03 02:06:26;;;;;;;10.30;8.40;;;;;;;18.78;83.03;100273.88;5111656;28;20539;-67
2022/08/03 02:08:54;;;;;;;9.77;7.23;;;;;;;18.74;83.14;100275.25;5118524;28;20446;-67
2022/08/03 02:11:20;;;;;;;8.77;7.17;;;;;;;18.68;83.46;100280.63;5117858;28;20474;-68
2022/08/03 02:13:48;;;;;;;9.80;7.80;;;;;;;18.66;83.35;100278.09;5114102;28;20442;-67
2022/08/03 02:16:14;;;;;;;8.37;7.63;;;;;;;18.60;83.88;100273.47;5100362;28;20495;-68
2022/08/03 02:18:42;;;;;;;11.83;8.43;;;;;;;18.73;84.02;100281.72;5117324;28;20445;-68
2022/08/03 02:21:11;;;;;;;12.37;8.00;;;;;;;18.64;83.85;100274.75;5117828;28;20539;-68
2022/08/03 02:23:38;;;;;;;12.73;8.80;;;;;;;18.62;83.97;100274.94;5118500;28;20875;-68
2022/08/03 02:26:08;;;;;;;8.97;8.17;;;;;;;18.61;84.01;100277.88;5117994;28;20497;-67
2022/08/03 02:28:36;;;;;;;11.13;8.83;;;;;;;18.52;83.88;100276.28;5118571;28;20513;-67
2022/08/03 02:31:05;;;;;;;11.70;8.00;;;;;;;18.58;84.03;100270.13;5118128;28;20470;-68
2022/08/03 02:33:34;;;;;;;13.67;9.33;;;;;;;18.55;83.81;100274.03;5118325;28;20871;-68
2022/08/03 02:36:02;;;;;;;8.67;7.77;;;;;;;18.60;83.56;100276.16;5117909;28;20470;-68
2022/08/03 02:38:33;;;;;;;9.17;8.33;;;;;;;18.55;83.46;100268.63;5117829;28;20615;-68
2022/08/03 02:41:01;;;;;;;10.30;8.73;;;;;;;18.50;83.72;100271.06;5118066;28;20461;-68
2022/08/03 02:43:30;;;;;;;9.03;8.13;;;;;;;18.52;83.63;100268.16;5122037;28;21357;-67
2022/08/03 02:45:56;;;;;;;8.33;7.50;;;;;;;18.48;83.76;100266.88;5121464;28;20487;-68
2022/08/03 02:48:27;;;;;;;13.07;7.97;;;;;;;18.51;83.70;100267.34;5120779;28;20465;-68
2022/08/03 02:50:55;;;;;;;8.77;7.97;;;;;;;18.44;83.76;100264.56;5121104;28;20489;-67
2022/08/03 02:53:22;;;;;;;9.10;8.30;;;;;;;18.43;83.95;100264.75;5121994;28;20443;-67
2022/08/03 02:55:51;;;;;;;8.43;7.57;;;;;;;18.42;83.91;100266.63;5121014;28;20485;-67
2022/08/03 02:58:20;;;;;;;9.60;8.60;;;;;;;18.40;84.08;100265.97;5121388;28;20457;-67
2022/08/03 03:00:47;;;;;;;9.90;8.23;;;;;;;18.42;83.75;100263.91;5121316;28;20470;-67
2022/08/03 03:03:14;;;;;;;9.90;8.97;;;;;;;18.46;83.97;100272.47;5121319;28;20445;-67
2022/08/03 03:05:42;;;;;;;16.00;10.10;;;;;;;18.45;83.56;100268.09;5121242;28;20900;-68
2022/08/03 03:08:09;;;;;;;15.33;9.67;;;;;;;18.48;83.09;100261.47;5120800;28;20493;-68
2022/08/03 03:10:37;;;;;;;9.90;8.40;;;;;;;18.43;83.40;100270.97;5120997;28;20474;-68
2022/08/03 03:13:05;;;;;;;9.90;8.90;;;;;;;18.37;83.78;100266.34;5121756;28;20454;-68
2022/08/03 03:15:34;;;;;;;10.23;9.30;;;;;;;18.54;82.77;100261.53;5121107;28;20482;-68
2022/08/03 03:18:01;;;;;;;10.13;8.27;;;;;;;18.53;82.72;100262.56;5119503;28;20481;-67
2022/08/03 03:20:28;;;;;;;9.57;8.67;;;;;;;18.54;82.51;100263.38;5120855;28;20519;-69
2022/08/03 03:22:56;;;;;;;11.37;8.80;;;;;;;18.44;83.23;100271.84;5121395;28;20438;-69
2022/08/03 03:25:23;;;;;;;10.60;9.53;;;;;;;18.28;83.81;100264.81;5121185;28;20433;-69
2022/08/03 03:27:50;;;;;;;10.37;9.30;;;;;;;18.29;83.92;100269.16;5120156;28;21017;-69
2022/08/03 03:30:18;;;;;;;10.90;9.37;;;;;;;18.26;83.63;100269.53;5105642;28;20771;-69
2022/08/03 03:32:45;;;;;;;10.30;9.30;;;;;;;18.19;84.19;100276.75;5121445;28;20442;-69
2022/08/03 03:35:15;;;;;;;9.77;8.77;;;;;;;18.17;84.71;100273.41;5118014;28;20451;-67
2022/08/03 03:37:42;;;;;;;10.63;9.50;;;;;;;18.15;84.73;100275.47;5120668;28;20484;-67
2022/08/03 03:40:10;;;;;;;11.30;10.20;;;;;;;18.18;84.59;100269.69;5120198;28;21137;-67
2022/08/03 03:42:37;;;;;;;10.27;9.37;;;;;;;18.25;84.29;100270.59;5120560;28;20462;-67
2022/08/03 03:45:04;;;;;;;10.67;8.77;;;;;;;18.29;84.18;100276.47;5121433;28;20459;-67
2022/08/03 03:47:34;;;;;;;10.53;9.63;;;;;;;18.20;84.44;100276.56;5118596;28;20502;-67
2022/08/03 03:50:01;;;;;;;10.67;9.70;;;;;;;18.23;83.84;100273.47;5120809;28;20446;-69
2022/08/03 03:52:28;;;;;;;11.40;9.13;;;;;;;18.49;82.58;100277.53;5119397;28;20500;-69
2022/08/03 03:54:55;;;;;;;10.33;9.33;;;;;;;18.49;82.32;100272.09;5120248;28;20469;-69
2022/08/03 03:57:22;;;;;;;9.60;8.60;;;;;;;18.44;82.56;100269.97;5120254;28;20478;-69
2022/08/03 03:59:49;;;;;;;14.77;9.33;;;;;;;18.58;82.32;100270.94;5121360;28;20467;-69
2022/08/03 04:02:15;;;;;;;10.73;9.00;;;;;;;19.15;80.21;100263.78;5119481;28;20466;-69
2022/08/03 04:13:11;;;;;;;10.27;8.17;;;;;;;21.19;69.57;100270.41;5074742;28;20472;-69
2022/08/03 04:15:38;;;;;;;11.40;7.47;;;;;;;21.54;68.37;100272.91;5109451;28;20536;-69
2022/08/03 04:18:07;;;;;;;8.17;7.47;;;;;;;21.89;66.82;100269.06;5118629;28;20442;-69
2022/08/03 04:20:37;;;;;;;8.00;7.30;;;;;;;22.56;64.30;100269.63;5119605;28;20462;-69
2022/08/03 04:23:04;;;;;;;9.93;7.50;;;;;;;;;;5119655;28;20506;-68
2022/08/03 04:25:33;;;;;;;10.53;7.60;;;;;;;23.22;62.02;100268.31;5119532;28;20591;-69
2022/08/03 04:28:01;;;;;;;7.80;6.67;;;;;;;23.29;61.03;100274.53;5119511;28;20487;-67
2022/08/03 04:30:28;;;;;;;7.90;6.03;;;;;;;23.47;60.37;100278.34;5119845;28;20465;-67
2022/08/03 04:32:56;;;;;;;7.60;6.77;;;;;;;23.52;59.74;100274.97;5120094;28;20437;-67
2022/08/03 04:35:24;;;;;;;7.57;6.87;;;;;;;24.05;57.72;100272.50;5119073;28;20511;-67
2022/08/03 04:37:53;;;;;;;8.70;6.53;;;;;;;24.81;55.03;100277.59;5119997;28;20548;-67
2022/08/03 04:40:21;;;;;;;8.50;5.97;;;;;;;24.89;54.76;100277.25;5118909;28;20492;-67
2022/08/03 04:42:49;;;;;;;7.10;6.20;;;;;;;24.94;53.90;100280.09;5119808;28;20468;-67
2022/08/03 04:45:16;;;;;;;6.27;5.77;;;;;;;24.89;53.71;100284.63;5119727;28;20507;-67
2022/08/03 04:47:43;;;;;;;6.73;6.13;;;;;;;25.06;53.69;100287.50;5118583;28;20446;-67
2022/08/03 04:50:10;;;;;;;5.70;5.20;;;;;;;24.32;55.66;100283.09;5118827;28;20611;-67
2022/08/03 04:52:37;;;;;;;6.30;5.70;;;;;;;24.23;55.99;100285.31;5119918;28;20470;-68
2022/08/03 04:55:07;;;;;;;7.20;6.50;;;;;;;24.47;55.74;100287.31;5118156;28;20524;-67
2022/08/03 04:57:33;;;;;;;6.70;6.10;;;;;;;24.54;55.57;100277.97;5107151;28;20462;-68
2022/08/03 05:00:00;;;;;;;6.07;5.57;;;;;;;24.68;54.83;100280.53;5119141;28;20466;-68
2022/08/03 05:02:27;;;;;;;6.70;5.97;;;;;;;23.34;58.23;100278.50;5128382;27;20470;-66
2022/08/03 05:04:54;;;;;;;6.33;5.60;;;;;;;23.03;59.98;100283.75;5119189;28;20663;-66
2022/08/03 05:07:20;;;;;;;10.47;5.70;;;;;;;23.66;58.24;100277.34;5118548;28;20508;-66
2022/08/03 05:09:47;;;;;;;6.77;6.00;;;;;;;24.54;55.24;100280.72;5117073;28;20442;-66
2022/08/03 05:12:16;;;;;;;5.57;5.00;;;;;;;25.88;51.23;100290.28;5116912;28;20470;-67
2022/08/03 05:14:42;;;;;;;7.17;5.27;;;;;;;26.17;50.16;100279.38;5115152;28;20499;-66
2022/08/03 05:17:09;;;;;;;5.83;5.00;;;;;;;26.27;49.76;100286.97;5117373;28;20477;-66
2022/08/03 05:19:36;;;;;;;5.57;5.07;;;;;;;27.11;47.30;100290.97;5118671;28;20897;-66
2022/08/03 05:22:03;;;;;;;6.93;5.20;;;;;;;27.68;45.81;100284.47;5116601;28;20474;-67
2022/08/03 05:24:30;;;;;;;5.53;5.03;;;;;;;26.96;47.51;100286.06;5118796;28;20458;-67
2022/08/03 05:26:56;;;;;;;6.70;5.03;;;;;;;26.93;47.64;100287.41;5105089;28;20487;-68
2022/08/03 05:29:24;;;;;;;4.47;4.07;;;;;;;27.79;45.81;100286.25;5115235;28;20489;-68
2022/08/03 05:31:51;;;;;;;5.87;5.03;;;;;;;28.57;43.68;100288.88;5117588;28;20751;-69
2022/08/03 05:34:18;;;;;;;5.00;4.60;;;;;;;28.67;43.79;100285.44;5098474;28;20479;-69
2022/08/03 05:36:45;;;;;;;4.87;4.47;;;;;;;29.28;42.48;100293.41;5110204;28;20492;-69
2022/08/03 05:39:11;;;;;;;7.07;4.93;;;;;;;29.01;42.83;100288.75;5118192;28;20587;-68
2022/08/03 05:41:39;;;;;;;6.23;4.90;;;;;;;28.40;44.15;100290.88;5116543;28;20470;-69
2022/08/03 05:44:05;;;;;;;6.20;5.10;;;;;;;29.37;41.97;100293.75;5118295;28;20433;-69
2022/08/03 05:46:34;;;;;;;5.10;4.27;;;;;;;30.03;41.06;100291.41;5117255;28;20511;-69
2022/08/03 05:49:01;;;;;;;5.10;4.60;;;;;;;30.39;39.98;100299.81;5117976;28;20457;-69
2022/08/03 05:51:28;;;;;;;6.37;4.60;;;;;;;31.24;38.22;100298.53;5116330;28;20485;-70
2022/08/03 05:53:55;;;;;;;5.00;4.50;;;;;;;29.68;41.06;100292.00;5117475;28;20878;-67
2022/08/03 05:56:23;;;;;;;4.60;4.20;;;;;;;28.45;43.80;100290.94;5117582;28;20527;-69
2022/08/03 05:58:51;;;;;;;9.10;4.53;;;;;;;27.62;45.73;100286.31;5116726;28;20450;-67
2022/08/03 06:01:20;;;;;;;5.50;4.77;;;;;;;27.96;46.08;100298.06;5118017;28;20481;-70
2022/08/03 06:03:49;;;;;;;6.63;4.50;;;;;;;28.33;45.65;100293.81;5117433;28;20891;-66
2022/08/03 06:06:16;;;;;;;5.43;4.90;;;;;;;29.15;43.94;100291.06;5116097;28;20478;-69
2022/08/03 06:08:44;;;;;;;5.27;4.77;;;;;;;29.34;43.33;100294.25;5118625;28;20511;-68
2022/08/03 06:11:11;;;;;;;4.20;3.90;;;;;;;29.07;44.00;100289.63;5117306;28;20481;-67
2022/08/03 06:13:38;;;;;;;6.30;4.23;;;;;;;29.92;42.17;100286.09;5116984;28;20464;-67
2022/08/03 06:16:05;;;;;;;4.97;4.50;;;;;;;30.57;41.12;100295.72;5116787;27;20466;-68
2022/08/03 06:18:32;;;;;;;4.70;4.30;;;;;;;31.70;38.88;100292.13;5121385;28;20450;-67
2022/08/03 06:21:00;;;;;;;6.30;4.23;;;;;;;29.95;42.14;100293.84;5120584;28;20477;-68
2022/08/03 06:23:27;;;;;;;4.10;3.67;;;;;;;29.04;45.10;100291.00;5123210;28;20486;-68
2022/08/03 06:25:54;;;;;;;6.67;3.90;;;;;;;28.61;45.97;100292.81;5122433;28;20469;-67
2022/08/03 06:28:21;;;;;;;4.03;3.53;;;;;;;29.65;44.03;100301.66;5122581;28;20480;-67
2022/08/03 06:30:48;;;;;;;7.60;4.50;;;;;;;30.60;42.35;100303.44;5122086;28;20527;-67
2022/08/03 06:33:15;;;;;;;5.00;3.90;;;;;;;30.26;42.84;100300.31;5121325;28;20832;-67
2022/08/03 06:35:42;;;;;;;5.80;3.43;;;;;;;30.27;40.01;100298.38;5120663;28;20461;-68
2022/08/03 06:38:11;;;;;;;5.80;3.77;;;;;;;30.56;41.76;100298.75;5121534;28;20481;-67
2022/08/03 06:40:38;;;;;;;5.70;3.63;;;;;;;30.56;42.19;100301.53;5121287;28;20542;-68
2022/08/03 06:43:07;;;;;;;5.30;3.60;;;;;;;32.93;37.21;100305.41;5121392;28;20452;-68
2022/08/03 06:45:35;;;;;;;3.40;2.93;;;;;;;32.89;35.13;100301.53;5120337;28;20473;-68
2022/08/03 06:48:03;;;;;;;7.17;3.23;;;;;;;33.94;33.62;100301.97;5119903;28;20449;-67
2022/08/03 06:50:30;;;;;;;3.53;2.33;;;;;;;34.89;29.69;100302.06;5119945;28;21259;-68
2022/08/03 06:52:57;;;;;;;3.87;2.10;;;;;;;33.88;30.65;100302.31;5121648;28;20458;-68
2022/08/03 06:55:25;;;;;;;5.33;2.77;;;;;;;31.91;33.92;100307.56;5118877;28;20492;-68
2022/08/03 06:57:51;;;;;;;4.93;2.80;;;;;;;32.61;32.17;100303.13;5120907;28;20446;-71
2022/08/03 07:00:19;;;;;;;6.90;2.13;;;;;;;32.64;32.08;100308.91;5121035;28;20426;-66
2022/08/03 07:02:46;;;;;;;4.40;2.40;;;;;;;32.81;32.06;100302.16;5120679;28;21232;-65
2022/08/03 07:05:13;;;;;;;2.90;2.57;;;;;;;32.37;32.76;100289.13;5119446;28;20446;-65
2022/08/03 07:07:40;;;;;;;4.10;2.77;;;;;;;32.58;32.28;100295.38;5120372;28;20953;-65
2022/08/03 07:10:08;;;;;;;3.47;2.50;;;;;;;32.99;32.59;100290.38;5119455;28;20442;-65
2022/08/03 07:12:37;;;;;;;4.80;2.50;;;;;;;34.07;30.49;100308.72;5120661;28;20499;-65
2022/08/03 07:15:05;;;;;;;4.07;2.10;;;;;;;34.43;30.41;100296.38;5120874;28;20461;-65
2022/08/03 07:17:33;;;;;;;4.10;3.03;;;;;;;35.21;29.15;100306.00;5119881;28;20481;-65
2022/08/03 07:20:01;;;;;;;3.20;2.90;;;;;;;34.95;28.65;100304.75;5119666;28;20546;-65
2022/08/03 07:22:28;;;;;;;3.80;2.40;;;;;;;34.88;29.25;100321.81;5119932;28;20466;-66
2022/08/03 07:24:55;;;;;;;3.47;2.13;;;;;;;33.63;31.02;100303.38;5121209;28;20422;-65
2022/08/03 07:27:22;;;;;;;4.30;3.00;;;;;;;33.93;30.46;100313.34;5119645;28;20476;-66
2022/08/03 07:29:50;;;;;;;4.53;2.70;;;;;;;34.72;29.17;100315.66;5120348;28;20450;-65
2022/08/03 07:32:17;;;;;;;5.90;2.60;;;;;;;35.25;29.37;100312.59;5119279;28;20479;-66
2022/08/03 07:34:44;;;;;;;3.53;2.53;;;;;;;35.81;27.83;100316.34;5119710;28;20484;-66
2022/08/03 07:37:11;;;;;;;3.00;2.07;;;;;;;35.08;29.61;100313.13;5119303;28;20474;-66
2022/08/03 07:39:38;;;;;;;4.63;2.00;;;;;;;33.12;33.29;100308.28;5118855;28;20458;-67
2022/08/03 07:42:05;;;;;;;3.43;2.07;;;;;;;33.98;30.87;100316.06;5119156;28;20782;-66
2022/08/03 07:44:32;;;;;;;3.40;2.27;;;;;;;34.18;31.46;100311.38;5119054;28;20446;-66
2022/08/03 07:47:01;;;;;;;3.73;2.07;;;;;;;36.00;28.42;100316.19;5122151;27;20493;-66
2022/08/03 07:49:28;;;;;;;3.73;2.07;;;;;;;35.16;28.54;100319.16;5119007;28;20499;-66
2022/08/03 07:54:35;;;;;;;3.40;2.30;;;;;;;37.21;26.40;100306.53;5117825;28;20459;-66
2022/08/03 07:57:02;;;;;;;3.57;2.00;;;;;;;38.23;24.89;100310.44;5119607;28;20531;-67
2022/08/03 07:59:29;;;;;;;4.50;2.10;;;;;;;38.24;24.50;100314.88;5120851;28;20446;-67
2022/08/03 08:01:55;;;;;;;4.10;2.03;;;;;;;36.99;25.70;100309.31;5119704;28;20531;-66
2022/08/03 08:04:24;;;;;;;2.20;1.57;;;;;;;36.06;28.39;100314.16;5117155;28;20453;-67
2022/08/03 08:06:51;;;;;;;3.10;1.77;;;;;;;37.56;25.91;100311.47;5119748;28;20483;-66
2022/08/03 08:09:17;;;;;;;3.90;1.60;;;;;;;36.88;27.28;100311.53;5120105;28;20485;-66
2022/08/03 08:11:44;;;;;;;4.90;1.60;;;;;;;38.26;24.75;100308.97;5118391;28;20477;-66
2022/08/03 08:14:11;;;;;;;2.77;1.93;;;;;;;38.31;24.55;100308.81;5120517;28;20447;-66
2022/08/03 08:16:38;;;;;;;4.40;2.20;;;;;;;37.11;25.78;100307.56;5119454;28;20501;-66
2022/08/03 08:19:05;;;;;;;2.93;1.70;;;;;;;36.13;27.39;100316.53;5125821;27;20456;-66
2022/08/03 08:21:33;;;;;;;2.40;2.00;;;;;;;36.43;26.95;100311.44;5119032;28;20492;-66
2022/08/03 08:24:00;;;;;;;3.27;2.03;;;;;;;36.19;26.60;100312.47;5121018;28;20455;-66
2022/08/03 08:26:27;;;;;;;2.60;2.17;;;;;;;35.55;28.27;100317.91;5119026;28;20469;-66
2022/08/03 08:28:54;;;;;;;4.30;1.93;;;;;;;35.37;28.61;100308.53;5120074;28;20477;-66
2022/08/03 08:31:20;;;;;;;5.13;3.00;;;;;;;35.69;28.04;100310.41;5119569;28;20495;-66
2022/08/03 08:33:47;;;;;;;5.10;2.40;;;;;;;36.25;28.38;100310.44;5126881;27;20477;-66
2022/08/03 08:36:14;;;;;;;4.10;2.80;;;;;;;37.90;25.09;100313.63;5139673;27;20477;-66
2022/08/03 08:38:43;;;;;;;2.70;2.20;;;;;;;36.17;27.13;100317.53;5137799;27;20481;-66
2022/08/03 08:41:11;;;;;;;4.40;2.47;;;;;;;35.98;28.25;100321.25;5117850;28;20479;-65
2022/08/03 08:43:38;;;;;;;3.87;2.20;;;;;;;35.93;28.64;100315.78;5119084;28;21066;-66
2022/08/03 08:46:07;;;;;;;7.73;2.23;;;;;;;36.98;26.48;100307.66;5118218;28;20462;-65
2022/08/03 08:48:34;;;;;;;2.87;1.97;;;;;;;36.15;27.72;100306.72;5123959;27;20467;-66
2022/08/03 08:51:02;;;;;;;6.63;2.40;;;;;;;35.44;29.05;100306.97;5121222;27;20519;-66
2022/08/03 08:53:34;;;;;;;3.63;2.20;;;;;;;35.95;28.32;100307.13;5118025;28;20506;-69
2022/08/03 08:56:02;;;;;;;3.90;2.20;;;;;;;36.78;27.26;100311.78;5117758;28;20466;-70
2022/08/03 08:58:32;;;;;;;4.80;2.57;;;;;;;35.94;28.09;100309.09;5117415;28;20501;-69
2022/08/03 09:00:58;;;;;;;2.63;1.97;;;;;;;37.66;26.23;100316.81;5117709;28;20481;-69
2022/08/03 09:03:25;;;;;;;5.20;2.70;;;;;;;37.19;26.57;100311.59;5117245;28;20442;-69
2022/08/03 09:05:52;;;;;;;3.10;2.30;;;;;;;37.31;26.13;100308.25;5116047;28;20475;-70
2022/08/03 09:08:19;;;;;;;5.20;2.13;;;;;;;36.93;26.74;100315.00;5120433;27;20505;-70
2022/08/03 09:10:46;;;;;;;3.13;1.97;;;;;;;37.78;26.94;100307.84;5117703;28;20486;-70
2022/08/03 09:13:14;;;;;;;5.27;2.80;;;;;;;37.48;26.45;100308.34;5118610;28;20882;-70
2022/08/03 09:15:41;;;;;;;3.97;2.53;;;;;;;37.61;25.90;100312.16;5118273;28;20540;-70
2022/08/03 09:18:08;;;;;;;3.17;2.30;;;;;;;37.40;27.07;100303.53;5118096;28;20452;-71
2022/08/03 09:20:35;;;;;;;5.30;2.57;;;;;;;36.88;27.47;100294.81;5118074;28;21062;-70
2022/08/03 09:23:07;;;;;;;5.00;2.73;;;;;;;37.74;25.78;100301.22;5118987;28;20500;-70
2022/08/03 09:25:34;;;;;;;6.77;2.40;;;;;;;36.74;27.20;100300.44;5117510;28;20470;-70
2022/08/03 09:28:07;;;;;;;3.10;2.10;;;;;;;36.45;27.94;100306.38;5118460;28;20995;-70
2022/08/03 09:30:36;;;;;;;5.47;3.37;;;;;;;35.99;28.47;100309.00;5117530;28;20474;-70
2022/08/03 09:33:04;;;;;;;6.07;2.53;;;;;;;35.94;28.55;100306.31;5118054;28;20487;-70
2022/08/03 09:35:32;;;;;;;5.67;2.83;;;;;;;35.52;29.23;100299.06;5117631;28;20482;-70
2022/08/03 09:38:12;;;;;;;4.23;3.03;;;;;;;35.52;29.54;100299.91;5118202;28;20570;-70
2022/08/03 09:40:39;;;;;;;3.60;2.60;;;;;;;35.52;29.64;100302.69;5117090;28;20485;-70
2022/08/03 09:43:07;;;;;;;6.20;3.43;;;;;;;34.98;30.22;100304.13;5118882;28;20915;-68
2022/08/03 09:45:35;;;;;;;4.33;3.00;;;;;;;33.62;32.37;100304.53;5117828;28;20472;-70
2022/08/03 09:48:21;;;;;;;6.47;2.57;;;;;;;34.64;31.15;100300.47;5117234;28;20514;-70
2022/08/03 09:50:49;;;;;;;6.50;2.47;;;;;;;34.15;32.33;100290.59;5119019;28;20462;-69
2022/08/03 09:53:16;;;;;;;5.50;2.57;;;;;;;35.91;29.46;100286.66;5122664;28;20548;-69
2022/08/03 09:55:51;;;;;;;6.57;2.50;;;;;;;36.38;27.66;100301.25;5120961;28;20505;-69
2022/08/03 09:58:18;;;;;;;2.20;2.00;;;;;;;36.94;28.02;100287.94;5118468;28;20441;-69
2022/08/03 10:00:55;;;;;;;6.23;2.40;;;;;;;35.75;29.05;100297.25;5113139;28;20516;-70
2022/08/03 10:03:23;;;;;;;4.07;2.60;;;;;;;36.10;28.94;100292.91;5116335;28;20434;-69
2022/08/03 10:05:50;;;;;;;4.63;2.73;;;;;;;35.90;28.27;100288.63;5121759;28;20990;-69
2022/08/03 10:08:18;;;;;;;3.63;2.47;;;;;;;36.24;28.37;100292.91;5122837;28;20449;-69
2022/08/03 10:10:48;;;;;;;2.30;1.87;;;;;;;36.40;28.06;100290.59;5122300;28;20470;-69
2022/08/03 10:13:16;;;;;;;3.73;2.10;;;;;;;36.78;27.97;100289.50;5123211;28;20488;-68
2022/08/03 10:15:43;;;;;;;2.57;2.10;;;;;;;36.80;28.02;100287.19;5121831;28;20495;-68
2022/08/03 10:18:11;;;;;;;2.50;2.27;;;;;;;36.87;26.83;100288.38;5121818;28;20499;-68
2022/08/03 10:20:41;;;;;;;6.37;2.33;;;;;;;37.35;25.89;100278.56;5121886;28;20462;-68
2022/08/03 10:23:09;;;;;;;3.90;2.00;;;;;;;37.98;26.91;100276.50;5122504;28;20427;-68
2022/08/03 10:25:39;;;;;;;4.20;1.97;;;;;;;36.06;26.88;100286.31;5122249;28;21085;-68
2022/08/03 10:28:06;;;;;;;2.90;1.90;;;;;;;35.28;28.08;100280.59;5121837;28;20465;-68
2022/08/03 10:30:33;;;;;;;7.67;1.83;;;;;;;35.22;28.79;100285.41;5121640;27;20580;-68
2022/08/03 10:33:03;;;;;;;3.50;1.87;;;;;;;36.08;28.81;100281.25;5122282;28;20470;-69
2022/08/03 10:35:32;;;;;;;7.83;1.87;;;;;;;35.62;28.70;100280.25;5114062;27;20494;-69
2022/08/03 10:38:00;;;;;;;6.67;1.83;;;;;;;36.45;27.66;100273.78;5120738;28;20481;-69
2022/08/03 10:40:28;;;;;;;5.27;2.20;;;;;;;36.90;25.98;100268.25;5114347;28;20501;-69
2022/08/03 10:42:59;;;;;;;4.47;2.00;;;;;;;36.89;26.41;100276.94;5100273;28;20443;-69
2022/08/03 10:45:27;;;;;;;4.60;2.07;;;;;;;36.45;27.22;100276.56;5101331;28;20428;-69
2022/08/03 10:47:56;;;;;;;3.47;1.90;;;;;;;35.78;28.12;100274.38;5120137;28;20434;-68
2022/08/03 10:50:24;;;;;;;4.07;2.03;;;;;;;36.03;27.82;100275.00;5120293;28;20438;-69
2022/08/03 10:52:56;;;;;;;4.40;1.60;;;;;;;36.15;28.83;100280.84;5121127;28;21062;-69
2022/08/03 10:58:15;;;;;;;4.20;2.00;;;;;;;36.44;26.61;100260.16;5101220;28;20467;-69
2022/08/03 11:00:49;;;;;;;3.50;1.80;;;;;;;34.32;29.28;100267.91;5120378;28;20462;-68
2022/08/03 11:03:17;;;;;;;5.30;1.40;;;;;;;36.10;26.02;100269.81;5119501;28;20864;-69
2022/08/03 11:05:46;;;;;;;5.30;1.63;;;;;;;36.47;26.65;100263.16;5120564;28;20474;-68
2022/08/03 11:08:28;;;;;;;3.50;1.63;;;;;;;36.22;27.36;100267.34;5127518;27;20517;-69
2022/08/03 11:10:57;;;;;;;5.50;1.70;;;;;;;35.68;27.74;100261.47;5139978;27;20477;-68
2022/08/03 11:13:27;;;;;;;2.97;1.70;;;;;;;36.66;26.25;100262.97;5136794;27;20614;-68
2022/08/03 11:15:55;;;;;;;4.30;1.70;;;;;;;36.18;26.44;100269.09;5120480;28;20525;-67
2022/08/03 11:18:23;;;;;;;5.60;2.23;;;;;;;35.98;26.84;100273.94;5120007;28;20454;-68
2022/08/03 11:20:51;;;;;;;4.93;1.67;;;;;;;36.16;26.59;100265.78;5119438;28;20478;-68
2022/08/03 11:23:20;;;;;;;2.37;1.40;;;;;;;35.45;27.16;100260.53;5120594;28;20422;-68
2022/08/03 11:26:14;;;;;;;3.13;1.70;;;;;;;35.13;27.50;100258.59;5119573;28;20474;-69
2022/08/03 11:28:44;;;;;;;2.73;2.30;;;;;;;34.73;28.44;100258.19;5120205;28;20450;-69
2022/08/03 11:31:57;;;;;;;4.70;2.17;;;;;;;34.94;28.67;100253.09;5119653;28;20489;-69
2022/08/03 11:34:24;;;;;;;2.50;1.57;;;;;;;34.98;28.77;100256.91;5119815;28;20482;-69
2022/08/03 11:37:20;;;;;;;3.40;1.80;;;;;;;36.04;27.11;100257.16;5119773;28;20589;-68
2022/08/03 11:39:48;;;;;;;3.90;2.13;;;;;;;35.85;27.22;100263.69;5119962;28;20537;-68
2022/08/03 11:42:44;;;;;;;4.80;2.30;;;;;;;35.40;28.13;100257.88;5118945;28;20539;-68
2022/08/03 11:45:11;;;;;;;3.77;1.83;;;;;;;35.33;28.01;100252.72;5099284;28;20523;-68